sensor_id;sensor_type;location;lat;lon;timestamp;P1;durP1;ratioP1;P2;durP2;ratioP2
74401;SDS011;62837;51.082;13.744;2023-04-25T00:02:16;3.00;;;1.30;;
74401;SDS011;62837;51.082;13.744;2023-04-25T00:04:47;1.50;;;1.00;;
74401;SDS011;62837;51.082;13.744;2023-04-25T00:07:18;2.40;;;1.10;;
74401;SDS011;62837;51.082;13.744;2023-04-25T00:09:49;2.90;;;1.10;;
74401;SDS011;62837;51.082;13.744;2023-04-25T00:12:20;1.90;;;1.10;;
74401;SDS011;62837;51.082;13.744;2023-04-25T00:14:52;2.50;;;1.40;;
74401;SDS011;62837;51.082;13.744;2023-04-25T00:17:24;2.20;;;1.20;;
74401;SDS011;62837;51.082;13.744;2023-04-25T00:19:55;2.10;;;1.10;;
74401;SDS011;62837;51.082;13.744;2023-04-25T00:22:27;2.50;;;1.60;;
74401;SDS011;62837;51.082;13.744;2023-04-25T00:24:57;4.40;;;1.30;;
74401;SDS011;62837;51.082;13.744;2023-04-25T00:27:28;2.10;;;1.00;;
74401;SDS011;62837;51.082;13.744;2023-04-25T00:29:59;2.40;;;1.40;;
74401;SDS011;62837;51.082;13.744;2023-04-25T00:32:31;3.50;;;1.90;;
74401;SDS011;62837;51.082;13.744;2023-04-25T00:35:01;2.70;;;1.20;;
74401;SDS011;62837;51.082;13.744;2023-04-25T00:37:33;2.70;;;1.70;;
74401;SDS011;62837;51.082;13.744;2023-04-25T00:40:05;2.70;;;1.10;;
74401;SDS011;62837;51.082;13.744;2023-04-25T00:42:38;2.60;;;1.80;;
74401;SDS011;62837;51.082;13.744;2023-04-25T00:45:10;2.70;;;1.50;;
74401;SDS011;62837;51.082;13.744;2023-04-25T00:47:43;3.60;;;1.20;;
74401;SDS011;62837;51.082;13.744;2023-04-25T00:50:15;2.90;;;1.40;;
74401;SDS011;62837;51.082;13.744;2023-04-25T00:52:45;3.00;;;1.40;;
74401;SDS011;62837;51.082;13.744;2023-04-25T00:55:16;3.10;;;1.40;;
74401;SDS011;62837;51.082;13.744;2023-04-25T00:57:48;2.10;;;1.20;;
74401;SDS011;62837;51.082;13.744;2023-04-25T01:00:20;2.70;;;1.20;;
74401;SDS011;62837;51.082;13.744;2023-04-25T01:02:51;2.30;;;1.50;;
74401;SDS011;62837;51.082;13.744;2023-04-25T01:05:22;5.90;;;2.00;;
74401;SDS011;62837;51.082;13.744;2023-04-25T01:07:53;2.80;;;1.60;;
74401;SDS011;62837;51.082;13.744;2023-04-25T01:10:24;2.00;;;1.50;;
74401;SDS011;62837;51.082;13.744;2023-04-25T01:12:55;2.80;;;1.70;;
74401;SDS011;62837;51.082;13.744;2023-04-25T01:15:26;3.70;;;2.10;;
74401;SDS011;62837;51.082;13.744;2023-04-25T01:17:58;2.90;;;2.10;;
74401;SDS011;62837;51.082;13.744;2023-04-25T01:20:30;2.00;;;1.30;;
74401;SDS011;62837;51.082;13.744;2023-04-25T01:23:02;3.30;;;2.50;;
74401;SDS011;62837;51.082;13.744;2023-04-25T01:25:33;2.30;;;1.30;;
74401;SDS011;62837;51.082;13.744;2023-04-25T01:28:05;3.80;;;2.00;;
74401;SDS011;62837;51.082;13.744;2023-04-25T01:30:36;2.70;;;1.60;;
74401;SDS011;62837;51.082;13.744;2023-04-25T01:33:08;3.20;;;1.80;;
74401;SDS011;62837;51.082;13.744;2023-04-25T01:35:40;2.80;;;1.80;;
74401;SDS011;62837;51.082;13.744;2023-04-25T01:38:11;3.30;;;2.00;;
74401;SDS011;62837;51.082;13.744;2023-04-25T01:40:42;2.90;;;2.20;;
74401;SDS011;62837;51.082;13.744;2023-04-25T01:43:15;4.80;;;2.50;;
74401;SDS011;62837;51.082;13.744;2023-04-25T01:45:46;5.40;;;2.30;;
74401;SDS011;62837;51.082;13.744;2023-04-25T01:48:18;4.70;;;1.50;;
74401;SDS011;62837;51.082;13.744;2023-04-25T01:50:48;2.40;;;1.50;;
74401;SDS011;62837;51.082;13.744;2023-04-25T01:53:19;3.40;;;2.20;;
74401;SDS011;62837;51.082;13.744;2023-04-25T01:55:50;2.80;;;1.80;;
74401;SDS011;62837;51.082;13.744;2023-04-25T01:58:22;4.20;;;2.10;;
74401;SDS011;62837;51.082;13.744;2023-04-25T02:01:13;3.40;;;1.90;;
74401;SDS011;62837;51.082;13.744;2023-04-25T02:03:47;3.60;;;2.40;;
74401;SDS011;62837;51.082;13.744;2023-04-25T02:06:26;4.50;;;1.60;;
74401;SDS011;62837;51.082;13.744;2023-04-25T02:08:59;3.10;;;1.70;;
74401;SDS011;62837;51.082;13.744;2023-04-25T02:11:29;4.10;;;1.90;;
74401;SDS011;62837;51.082;13.744;2023-04-25T02:14:20;4.30;;;1.70;;
74401;SDS011;62837;51.082;13.744;2023-04-25T02:16:59;3.40;;;1.70;;
74401;SDS011;62837;51.082;13.744;2023-04-25T02:19:31;3.10;;;1.80;;
74401;SDS011;62837;51.082;13.744;2023-04-25T02:22:02;4.30;;;2.10;;
74401;SDS011;62837;51.082;13.744;2023-04-25T02:24:32;3.40;;;2.30;;
74401;SDS011;62837;51.082;13.744;2023-04-25T02:27:04;3.10;;;1.90;;
74401;SDS011;62837;51.082;13.744;2023-04-25T02:29:35;5.30;;;2.20;;
74401;SDS011;62837;51.082;13.744;2023-04-25T02:32:06;4.90;;;2.40;;
74401;SDS011;62837;51.082;13.744;2023-04-25T02:34:37;5.00;;;2.40;;
74401;SDS011;62837;51.082;13.744;2023-04-25T02:37:08;5.50;;;2.10;;
74401;SDS011;62837;51.082;13.744;2023-04-25T02:39:38;3.70;;;2.50;;
74401;SDS011;62837;51.082;13.744;2023-04-25T02:42:09;4.70;;;2.60;;
74401;SDS011;62837;51.082;13.744;2023-04-25T02:44:40;4.30;;;2.00;;
74401;SDS011;62837;51.082;13.744;2023-04-25T02:47:11;3.50;;;1.80;;
74401;SDS011;62837;51.082;13.744;2023-04-25T02:49:43;3.50;;;2.20;;
74401;SDS011;62837;51.082;13.744;2023-04-25T02:52:14;4.20;;;2.20;;
74401;SDS011;62837;51.082;13.744;2023-04-25T02:54:47;3.40;;;2.50;;
74401;SDS011;62837;51.082;13.744;2023-04-25T02:57:18;4.90;;;2.20;;
74401;SDS011;62837;51.082;13.744;2023-04-25T02:59:49;4.10;;;2.40;;
74401;SDS011;62837;51.082;13.744;2023-04-25T03:02:20;3.60;;;1.90;;
74401;SDS011;62837;51.082;13.744;2023-04-25T03:07:22;5.80;;;2.60;;
74401;SDS011;62837;51.082;13.744;2023-04-25T03:09:52;6.50;;;3.00;;
74401;SDS011;62837;51.082;13.744;2023-04-25T03:12:24;4.90;;;2.20;;
74401;SDS011;62837;51.082;13.744;2023-04-25T03:14:55;5.00;;;2.10;;
74401;SDS011;62837;51.082;13.744;2023-04-25T03:17:26;4.70;;;2.50;;
74401;SDS011;62837;51.082;13.744;2023-04-25T03:19:57;11.00;;;5.90;;
74401;SDS011;62837;51.082;13.744;2023-04-25T03:22:29;5.40;;;2.90;;
74401;SDS011;62837;51.082;13.744;2023-04-25T03:25:00;5.60;;;2.80;;
74401;SDS011;62837;51.082;13.744;2023-04-25T03:27:31;7.50;;;2.50;;
74401;SDS011;62837;51.082;13.744;2023-04-25T03:30:03;6.40;;;2.80;;
74401;SDS011;62837;51.082;13.744;2023-04-25T03:32:35;6.70;;;2.90;;
74401;SDS011;62837;51.082;13.744;2023-04-25T03:35:07;5.80;;;3.00;;
74401;SDS011;62837;51.082;13.744;2023-04-25T03:37:38;6.10;;;2.70;;
74401;SDS011;62837;51.082;13.744;2023-04-25T03:40:17;4.70;;;2.20;;
74401;SDS011;62837;51.082;13.744;2023-04-25T03:43:26;5.60;;;3.60;;
74401;SDS011;62837;51.082;13.744;2023-04-25T03:46:01;5.90;;;3.00;;
74401;SDS011;62837;51.082;13.744;2023-04-25T03:48:32;5.10;;;3.10;;
74401;SDS011;62837;51.082;13.744;2023-04-25T03:51:03;4.90;;;2.70;;
74401;SDS011;62837;51.082;13.744;2023-04-25T03:53:36;4.50;;;3.10;;
74401;SDS011;62837;51.082;13.744;2023-04-25T03:56:15;6.70;;;3.40;;
74401;SDS011;62837;51.082;13.744;2023-04-25T03:58:47;6.10;;;3.30;;
74401;SDS011;62837;51.082;13.744;2023-04-25T04:01:19;5.80;;;2.90;;
74401;SDS011;62837;51.082;13.744;2023-04-25T04:03:50;5.50;;;3.50;;
74401;SDS011;62837;51.082;13.744;2023-04-25T04:06:21;13.00;;;4.70;;
74401;SDS011;62837;51.082;13.744;2023-04-25T04:08:59;5.70;;;2.90;;
74401;SDS011;62837;51.082;13.744;2023-04-25T04:11:34;5.90;;;3.30;;
74401;SDS011;62837;51.082;13.744;2023-04-25T04:14:06;5.60;;;3.10;;
74401;SDS011;62837;51.082;13.744;2023-04-25T04:16:42;5.90;;;3.00;;
74401;SDS011;62837;51.082;13.744;2023-04-25T04:19:13;4.60;;;2.60;;
74401;SDS011;62837;51.082;13.744;2023-04-25T04:21:50;7.50;;;2.60;;
74401;SDS011;62837;51.082;13.744;2023-04-25T04:24:21;6.10;;;2.60;;
74401;SDS011;62837;51.082;13.744;2023-04-25T04:27:02;6.80;;;2.30;;
74401;SDS011;62837;51.082;13.744;2023-04-25T04:29:46;5.40;;;2.20;;
74401;SDS011;62837;51.082;13.744;2023-04-25T04:32:31;5.40;;;2.90;;
74401;SDS011;62837;51.082;13.744;2023-04-25T04:35:06;4.90;;;3.10;;
74401;SDS011;62837;51.082;13.744;2023-04-25T04:37:39;5.40;;;2.90;;
74401;SDS011;62837;51.082;13.744;2023-04-25T04:40:12;8.30;;;2.90;;
74401;SDS011;62837;51.082;13.744;2023-04-25T04:42:51;3.90;;;2.80;;
74401;SDS011;62837;51.082;13.744;2023-04-25T04:45:39;5.90;;;3.00;;
74401;SDS011;62837;51.082;13.744;2023-04-25T04:48:30;8.10;;;3.00;;
74401;SDS011;62837;51.082;13.744;2023-04-25T04:51:37;5.50;;;2.70;;
74401;SDS011;62837;51.082;13.744;2023-04-25T04:54:37;4.50;;;2.50;;
74401;SDS011;62837;51.082;13.744;2023-04-25T04:57:31;5.50;;;2.30;;
74401;SDS011;62837;51.082;13.744;2023-04-25T05:00:16;7.50;;;3.20;;
74401;SDS011;62837;51.082;13.744;2023-04-25T05:03:07;3.80;;;2.10;;
74401;SDS011;62837;51.082;13.744;2023-04-25T05:05:54;4.30;;;2.40;;
74401;SDS011;62837;51.082;13.744;2023-04-25T05:08:27;3.50;;;2.40;;
74401;SDS011;62837;51.082;13.744;2023-04-25T05:11:33;3.50;;;2.10;;
74401;SDS011;62837;51.082;13.744;2023-04-25T05:14:24;3.90;;;2.20;;
74401;SDS011;62837;51.082;13.744;2023-04-25T05:17:31;4.10;;;2.10;;
74401;SDS011;62837;51.082;13.744;2023-04-25T05:20:37;3.70;;;2.10;;
74401;SDS011;62837;51.082;13.744;2023-04-25T05:23:20;3.60;;;2.20;;
74401;SDS011;62837;51.082;13.744;2023-04-25T05:26:14;9.90;;;5.70;;
74401;SDS011;62837;51.082;13.744;2023-04-25T05:29:01;3.90;;;2.20;;
74401;SDS011;62837;51.082;13.744;2023-04-25T05:31:46;6.30;;;2.70;;
74401;SDS011;62837;51.082;13.744;2023-04-25T05:34:17;5.30;;;2.80;;
74401;SDS011;62837;51.082;13.744;2023-04-25T05:36:57;12.50;;;5.80;;
74401;SDS011;62837;51.082;13.744;2023-04-25T05:39:28;4.00;;;1.90;;
74401;SDS011;62837;51.082;13.744;2023-04-25T05:42:14;6.50;;;2.90;;
74401;SDS011;62837;51.082;13.744;2023-04-25T05:44:57;5.00;;;2.20;;
74401;SDS011;62837;51.082;13.744;2023-04-25T05:47:49;4.90;;;2.00;;
74401;SDS011;62837;51.082;13.744;2023-04-25T05:50:39;5.50;;;2.60;;
74401;SDS011;62837;51.082;13.744;2023-04-25T05:53:42;5.10;;;2.40;;
74401;SDS011;62837;51.082;13.744;2023-04-25T05:56:14;5.20;;;2.50;;
74401;SDS011;62837;51.082;13.744;2023-04-25T05:58:47;4.00;;;2.10;;
74401;SDS011;62837;51.082;13.744;2023-04-25T06:01:17;5.70;;;2.60;;
74401;SDS011;62837;51.082;13.744;2023-04-25T06:03:48;3.20;;;2.10;;
74401;SDS011;62837;51.082;13.744;2023-04-25T06:06:21;4.20;;;2.10;;
74401;SDS011;62837;51.082;13.744;2023-04-25T06:08:52;4.90;;;2.40;;
74401;SDS011;62837;51.082;13.744;2023-04-25T06:11:24;4.30;;;1.50;;
74401;SDS011;62837;51.082;13.744;2023-04-25T06:13:55;3.70;;;1.70;;
74401;SDS011;62837;51.082;13.744;2023-04-25T06:16:25;3.70;;;2.00;;
74401;SDS011;62837;51.082;13.744;2023-04-25T06:18:56;6.50;;;2.20;;
74401;SDS011;62837;51.082;13.744;2023-04-25T06:21:28;5.20;;;2.40;;
74401;SDS011;62837;51.082;13.744;2023-04-25T06:23:59;4.90;;;2.50;;
74401;SDS011;62837;51.082;13.744;2023-04-25T06:26:30;3.70;;;1.50;;
74401;SDS011;62837;51.082;13.744;2023-04-25T06:29:01;6.10;;;2.20;;
74401;SDS011;62837;51.082;13.744;2023-04-25T06:31:32;3.10;;;1.70;;
74401;SDS011;62837;51.082;13.744;2023-04-25T06:34:03;5.20;;;2.50;;
74401;SDS011;62837;51.082;13.744;2023-04-25T06:36:35;4.20;;;2.10;;
74401;SDS011;62837;51.082;13.744;2023-04-25T06:39:08;6.70;;;1.80;;
74401;SDS011;62837;51.082;13.744;2023-04-25T06:41:39;4.50;;;1.90;;
74401;SDS011;62837;51.082;13.744;2023-04-25T06:44:16;5.20;;;1.70;;
74401;SDS011;62837;51.082;13.744;2023-04-25T06:46:52;4.20;;;1.60;;
74401;SDS011;62837;51.082;13.744;2023-04-25T06:49:23;6.80;;;2.90;;
74401;SDS011;62837;51.082;13.744;2023-04-25T06:51:54;5.20;;;2.00;;
74401;SDS011;62837;51.082;13.744;2023-04-25T06:54:25;7.60;;;2.20;;
74401;SDS011;62837;51.082;13.744;2023-04-25T06:57:03;4.80;;;1.50;;
74401;SDS011;62837;51.082;13.744;2023-04-25T06:59:35;4.30;;;1.60;;
74401;SDS011;62837;51.082;13.744;2023-04-25T07:02:06;6.00;;;1.60;;
74401;SDS011;62837;51.082;13.744;2023-04-25T07:04:37;4.10;;;1.70;;
74401;SDS011;62837;51.082;13.744;2023-04-25T07:07:09;3.60;;;1.80;;
74401;SDS011;62837;51.082;13.744;2023-04-25T07:09:50;4.00;;;1.20;;
74401;SDS011;62837;51.082;13.744;2023-04-25T07:12:21;4.10;;;1.40;;
74401;SDS011;62837;51.082;13.744;2023-04-25T07:14:52;3.40;;;1.00;;
74401;SDS011;62837;51.082;13.744;2023-04-25T07:17:23;5.50;;;1.50;;
74401;SDS011;62837;51.082;13.744;2023-04-25T07:19:54;2.80;;;1.30;;
74401;SDS011;62837;51.082;13.744;2023-04-25T07:22:25;4.00;;;1.30;;
74401;SDS011;62837;51.082;13.744;2023-04-25T07:24:55;4.00;;;1.10;;
74401;SDS011;62837;51.082;13.744;2023-04-25T07:27:27;3.40;;;1.40;;
74401;SDS011;62837;51.082;13.744;2023-04-25T07:30:08;2.80;;;0.60;;
74401;SDS011;62837;51.082;13.744;2023-04-25T07:32:40;2.70;;;1.30;;
74401;SDS011;62837;51.082;13.744;2023-04-25T07:35:10;2.60;;;0.90;;
74401;SDS011;62837;51.082;13.744;2023-04-25T07:37:41;3.50;;;1.40;;
74401;SDS011;62837;51.082;13.744;2023-04-25T07:40:15;3.20;;;1.50;;
74401;SDS011;62837;51.082;13.744;2023-04-25T07:42:49;3.60;;;1.70;;
74401;SDS011;62837;51.082;13.744;2023-04-25T07:45:34;2.50;;;0.80;;
74401;SDS011;62837;51.082;13.744;2023-04-25T07:48:05;2.60;;;1.00;;
74401;SDS011;62837;51.082;13.744;2023-04-25T07:53:07;2.60;;;1.10;;
74401;SDS011;62837;51.082;13.744;2023-04-25T07:55:44;3.70;;;1.20;;
74401;SDS011;62837;51.082;13.744;2023-04-25T07:58:16;2.70;;;0.80;;
74401;SDS011;62837;51.082;13.744;2023-04-25T08:00:53;4.50;;;1.40;;
74401;SDS011;62837;51.082;13.744;2023-04-25T08:03:46;4.30;;;1.10;;
74401;SDS011;62837;51.082;13.744;2023-04-25T08:06:23;3.40;;;1.10;;
74401;SDS011;62837;51.082;13.744;2023-04-25T08:09:12;3.90;;;1.20;;
74401;SDS011;62837;51.082;13.744;2023-04-25T08:11:43;3.40;;;1.30;;
74401;SDS011;62837;51.082;13.744;2023-04-25T08:14:15;2.00;;;1.10;;
74401;SDS011;62837;51.082;13.744;2023-04-25T08:16:46;2.70;;;1.00;;
74401;SDS011;62837;51.082;13.744;2023-04-25T08:19:17;2.90;;;1.20;;
74401;SDS011;62837;51.082;13.744;2023-04-25T08:21:48;5.00;;;1.30;;
74401;SDS011;62837;51.082;13.744;2023-04-25T08:24:24;2.20;;;1.20;;
74401;SDS011;62837;51.082;13.744;2023-04-25T08:26:55;3.90;;;1.30;;
74401;SDS011;62837;51.082;13.744;2023-04-25T08:29:27;2.30;;;0.90;;
74401;SDS011;62837;51.082;13.744;2023-04-25T08:31:58;3.60;;;1.30;;
74401;SDS011;62837;51.082;13.744;2023-04-25T08:34:29;2.50;;;0.80;;
74401;SDS011;62837;51.082;13.744;2023-04-25T08:37:03;2.80;;;0.90;;
74401;SDS011;62837;51.082;13.744;2023-04-25T08:39:40;3.00;;;1.20;;
74401;SDS011;62837;51.082;13.744;2023-04-25T08:42:24;3.70;;;1.10;;
74401;SDS011;62837;51.082;13.744;2023-04-25T08:47:28;2.80;;;1.20;;
74401;SDS011;62837;51.082;13.744;2023-04-25T08:50:04;2.70;;;1.40;;
74401;SDS011;62837;51.082;13.744;2023-04-25T08:52:37;4.80;;;2.20;;
74401;SDS011;62837;51.082;13.744;2023-04-25T08:55:13;3.90;;;1.90;;
74401;SDS011;62837;51.082;13.744;2023-04-25T08:57:44;3.10;;;1.60;;
74401;SDS011;62837;51.082;13.744;2023-04-25T09:00:17;2.00;;;1.10;;
74401;SDS011;62837;51.082;13.744;2023-04-25T09:02:49;2.00;;;0.90;;
74401;SDS011;62837;51.082;13.744;2023-04-25T09:05:20;3.20;;;1.20;;
74401;SDS011;62837;51.082;13.744;2023-04-25T09:07:52;3.50;;;1.70;;
74401;SDS011;62837;51.082;13.744;2023-04-25T09:10:24;5.00;;;1.30;;
74401;SDS011;62837;51.082;13.744;2023-04-25T09:13:03;4.50;;;1.50;;
74401;SDS011;62837;51.082;13.744;2023-04-25T09:15:54;3.60;;;2.10;;
74401;SDS011;62837;51.082;13.744;2023-04-25T09:19:02;3.20;;;1.40;;
74401;SDS011;62837;51.082;13.744;2023-04-25T09:21:34;4.40;;;1.20;;
74401;SDS011;62837;51.082;13.744;2023-04-25T09:24:05;4.10;;;1.80;;
74401;SDS011;62837;51.082;13.744;2023-04-25T09:26:37;2.80;;;1.50;;
74401;SDS011;62837;51.082;13.744;2023-04-25T09:29:08;5.60;;;1.30;;
74401;SDS011;62837;51.082;13.744;2023-04-25T09:31:41;2.90;;;1.60;;
74401;SDS011;62837;51.082;13.744;2023-04-25T09:34:12;3.70;;;1.90;;
74401;SDS011;62837;51.082;13.744;2023-04-25T09:36:49;3.40;;;1.50;;
74401;SDS011;62837;51.082;13.744;2023-04-25T09:39:38;3.00;;;1.50;;
74401;SDS011;62837;51.082;13.744;2023-04-25T09:42:13;5.20;;;2.00;;
74401;SDS011;62837;51.082;13.744;2023-04-25T09:44:45;3.90;;;1.70;;
74401;SDS011;62837;51.082;13.744;2023-04-25T09:47:16;3.20;;;1.40;;
74401;SDS011;62837;51.082;13.744;2023-04-25T09:49:49;2.90;;;1.60;;
74401;SDS011;62837;51.082;13.744;2023-04-25T09:52:22;4.90;;;2.50;;
74401;SDS011;62837;51.082;13.744;2023-04-25T09:55:12;5.90;;;2.30;;
74401;SDS011;62837;51.082;13.744;2023-04-25T09:57:44;7.90;;;3.00;;
74401;SDS011;62837;51.082;13.744;2023-04-25T10:00:21;6.50;;;3.30;;
74401;SDS011;62837;51.082;13.744;2023-04-25T10:02:53;9.10;;;4.40;;
74401;SDS011;62837;51.082;13.744;2023-04-25T10:05:45;3.60;;;2.30;;
74401;SDS011;62837;51.082;13.744;2023-04-25T10:08:18;3.20;;;1.50;;
74401;SDS011;62837;51.082;13.744;2023-04-25T10:10:51;1.90;;;1.10;;
74401;SDS011;62837;51.082;13.744;2023-04-25T10:13:21;2.40;;;0.80;;
74401;SDS011;62837;51.082;13.744;2023-04-25T10:18:26;5.30;;;2.30;;
74401;SDS011;62837;51.082;13.744;2023-04-25T10:20:57;2.50;;;1.30;;
74401;SDS011;62837;51.082;13.744;2023-04-25T10:23:30;2.30;;;1.10;;
74401;SDS011;62837;51.082;13.744;2023-04-25T10:26:02;3.00;;;1.30;;
74401;SDS011;62837;51.082;13.744;2023-04-25T10:31:26;2.70;;;1.40;;
74401;SDS011;62837;51.082;13.744;2023-04-25T10:33:58;2.10;;;1.20;;
74401;SDS011;62837;51.082;13.744;2023-04-25T10:36:32;2.70;;;1.00;;
74401;SDS011;62837;51.082;13.744;2023-04-25T10:39:05;5.70;;;1.60;;
74401;SDS011;62837;51.082;13.744;2023-04-25T10:41:46;2.80;;;1.30;;
74401;SDS011;62837;51.082;13.744;2023-04-25T10:44:22;3.30;;;1.40;;
74401;SDS011;62837;51.082;13.744;2023-04-25T10:46:56;4.30;;;2.00;;
74401;SDS011;62837;51.082;13.744;2023-04-25T10:49:32;3.70;;;1.70;;
74401;SDS011;62837;51.082;13.744;2023-04-25T10:52:14;4.20;;;1.50;;
74401;SDS011;62837;51.082;13.744;2023-04-25T10:54:51;4.00;;;2.10;;
74401;SDS011;62837;51.082;13.744;2023-04-25T10:57:30;4.50;;;1.80;;
74401;SDS011;62837;51.082;13.744;2023-04-25T11:00:06;3.10;;;1.60;;
74401;SDS011;62837;51.082;13.744;2023-04-25T11:02:43;5.50;;;3.50;;
74401;SDS011;62837;51.082;13.744;2023-04-25T11:05:22;3.80;;;3.10;;
74401;SDS011;62837;51.082;13.744;2023-04-25T11:07:59;5.00;;;2.60;;
74401;SDS011;62837;51.082;13.744;2023-04-25T11:10:35;4.70;;;2.50;;
74401;SDS011;62837;51.082;13.744;2023-04-25T11:13:05;4.40;;;1.90;;
74401;SDS011;62837;51.082;13.744;2023-04-25T11:15:36;4.60;;;2.10;;
74401;SDS011;62837;51.082;13.744;2023-04-25T11:18:07;4.70;;;2.00;;
74401;SDS011;62837;51.082;13.744;2023-04-25T11:20:38;8.50;;;1.90;;
74401;SDS011;62837;51.082;13.744;2023-04-25T11:23:12;5.60;;;2.00;;
74401;SDS011;62837;51.082;13.744;2023-04-25T11:25:44;6.30;;;1.20;;
74401;SDS011;62837;51.082;13.744;2023-04-25T11:28:20;7.00;;;1.80;;
74401;SDS011;62837;51.082;13.744;2023-04-25T11:30:54;3.70;;;1.50;;
74401;SDS011;62837;51.082;13.744;2023-04-25T11:33:25;4.70;;;1.20;;
74401;SDS011;62837;51.082;13.744;2023-04-25T11:35:56;1.40;;;0.50;;
74401;SDS011;62837;51.082;13.744;2023-04-25T11:38:27;2.00;;;1.10;;
74401;SDS011;62837;51.082;13.744;2023-04-25T11:40:58;2.20;;;0.60;;
74401;SDS011;62837;51.082;13.744;2023-04-25T11:43:29;2.20;;;0.40;;
74401;SDS011;62837;51.082;13.744;2023-04-25T11:46:02;3.70;;;0.60;;
74401;SDS011;62837;51.082;13.744;2023-04-25T11:48:40;2.30;;;0.40;;
74401;SDS011;62837;51.082;13.744;2023-04-25T11:51:12;4.50;;;0.60;;
74401;SDS011;62837;51.082;13.744;2023-04-25T11:53:43;2.30;;;0.50;;
74401;SDS011;62837;51.082;13.744;2023-04-25T11:56:14;2.00;;;0.50;;
74401;SDS011;62837;51.082;13.744;2023-04-25T11:58:55;3.50;;;0.60;;
74401;SDS011;62837;51.082;13.744;2023-04-25T12:01:29;2.80;;;0.70;;
74401;SDS011;62837;51.082;13.744;2023-04-25T12:04:12;2.10;;;0.90;;
74401;SDS011;62837;51.082;13.744;2023-04-25T12:06:45;2.90;;;0.80;;
74401;SDS011;62837;51.082;13.744;2023-04-25T12:09:19;3.70;;;1.00;;
74401;SDS011;62837;51.082;13.744;2023-04-25T12:11:54;4.00;;;1.20;;
74401;SDS011;62837;51.082;13.744;2023-04-25T12:14:26;4.10;;;0.80;;
74401;SDS011;62837;51.082;13.744;2023-04-25T12:16:59;4.10;;;0.90;;
74401;SDS011;62837;51.082;13.744;2023-04-25T12:19:33;3.40;;;0.90;;
74401;SDS011;62837;51.082;13.744;2023-04-25T12:22:19;2.50;;;0.70;;
74401;SDS011;62837;51.082;13.744;2023-04-25T12:24:51;2.80;;;0.80;;
74401;SDS011;62837;51.082;13.744;2023-04-25T12:27:25;4.20;;;0.90;;
74401;SDS011;62837;51.082;13.744;2023-04-25T12:29:56;4.90;;;1.00;;
74401;SDS011;62837;51.082;13.744;2023-04-25T12:32:28;5.40;;;1.20;;
74401;SDS011;62837;51.082;13.744;2023-04-25T12:34:59;5.00;;;1.00;;
74401;SDS011;62837;51.082;13.744;2023-04-25T12:37:30;5.70;;;1.70;;
74401;SDS011;62837;51.082;13.744;2023-04-25T12:40:00;8.00;;;1.90;;
74401;SDS011;62837;51.082;13.744;2023-04-25T12:42:34;7.10;;;2.00;;
74401;SDS011;62837;51.082;13.744;2023-04-25T12:45:06;4.00;;;1.40;;
74401;SDS011;62837;51.082;13.744;2023-04-25T12:47:37;5.60;;;1.40;;
74401;SDS011;62837;51.082;13.744;2023-04-25T12:50:09;3.60;;;1.00;;
74401;SDS011;62837;51.082;13.744;2023-04-25T12:52:40;9.70;;;1.80;;
74401;SDS011;62837;51.082;13.744;2023-04-25T12:55:11;6.70;;;1.90;;
74401;SDS011;62837;51.082;13.744;2023-04-25T12:57:42;7.80;;;1.50;;
74401;SDS011;62837;51.082;13.744;2023-04-25T13:00:13;6.50;;;1.80;;
74401;SDS011;62837;51.082;13.744;2023-04-25T13:02:47;5.50;;;1.30;;
74401;SDS011;62837;51.082;13.744;2023-04-25T13:05:18;7.80;;;1.40;;
74401;SDS011;62837;51.082;13.744;2023-04-25T13:07:49;4.40;;;1.20;;
74401;SDS011;62837;51.082;13.744;2023-04-25T13:10:20;4.30;;;1.40;;
74401;SDS011;62837;51.082;13.744;2023-04-25T13:12:51;8.20;;;1.50;;
74401;SDS011;62837;51.082;13.744;2023-04-25T13:15:21;12.80;;;1.90;;
74401;SDS011;62837;51.082;13.744;2023-04-25T13:17:52;8.80;;;1.70;;
74401;SDS011;62837;51.082;13.744;2023-04-25T13:20:24;9.60;;;1.80;;
74401;SDS011;62837;51.082;13.744;2023-04-25T13:22:54;7.90;;;1.50;;
74401;SDS011;62837;51.082;13.744;2023-04-25T13:25:27;7.80;;;2.10;;
74401;SDS011;62837;51.082;13.744;2023-04-25T13:27:58;8.10;;;1.80;;
74401;SDS011;62837;51.082;13.744;2023-04-25T13:30:29;6.40;;;1.40;;
74401;SDS011;62837;51.082;13.744;2023-04-25T13:32:59;9.40;;;1.50;;
74401;SDS011;62837;51.082;13.744;2023-04-25T13:35:31;6.00;;;1.50;;
74401;SDS011;62837;51.082;13.744;2023-04-25T13:38:03;4.20;;;1.60;;
74401;SDS011;62837;51.082;13.744;2023-04-25T13:40:34;7.50;;;2.00;;
74401;SDS011;62837;51.082;13.744;2023-04-25T13:43:05;5.70;;;1.50;;
74401;SDS011;62837;51.082;13.744;2023-04-25T13:45:36;4.60;;;1.40;;
74401;SDS011;62837;51.082;13.744;2023-04-25T13:48:07;8.40;;;2.00;;
74401;SDS011;62837;51.082;13.744;2023-04-25T13:50:37;8.60;;;1.60;;
74401;SDS011;62837;51.082;13.744;2023-04-25T13:53:08;5.70;;;1.30;;
74401;SDS011;62837;51.082;13.744;2023-04-25T13:55:39;5.60;;;2.50;;
74401;SDS011;62837;51.082;13.744;2023-04-25T13:58:10;5.90;;;1.70;;
74401;SDS011;62837;51.082;13.744;2023-04-25T14:00:41;6.50;;;1.70;;
74401;SDS011;62837;51.082;13.744;2023-04-25T14:03:13;6.70;;;1.40;;
74401;SDS011;62837;51.082;13.744;2023-04-25T14:05:44;8.80;;;1.70;;
74401;SDS011;62837;51.082;13.744;2023-04-25T14:08:15;11.10;;;2.00;;
74401;SDS011;62837;51.082;13.744;2023-04-25T14:10:46;6.00;;;1.60;;
74401;SDS011;62837;51.082;13.744;2023-04-25T14:13:17;8.00;;;2.20;;
74401;SDS011;62837;51.082;13.744;2023-04-25T14:15:48;8.00;;;1.60;;
74401;SDS011;62837;51.082;13.744;2023-04-25T14:18:19;8.10;;;1.70;;
74401;SDS011;62837;51.082;13.744;2023-04-25T14:20:50;8.50;;;2.10;;
74401;SDS011;62837;51.082;13.744;2023-04-25T14:23:20;7.00;;;2.00;;
74401;SDS011;62837;51.082;13.744;2023-04-25T14:25:51;11.10;;;2.00;;
74401;SDS011;62837;51.082;13.744;2023-04-25T14:28:22;7.10;;;2.30;;
74401;SDS011;62837;51.082;13.744;2023-04-25T14:30:53;7.50;;;1.90;;
74401;SDS011;62837;51.082;13.744;2023-04-25T14:33:23;6.10;;;2.10;;
74401;SDS011;62837;51.082;13.744;2023-04-25T14:35:54;5.50;;;1.40;;
74401;SDS011;62837;51.082;13.744;2023-04-25T14:38:25;6.80;;;1.80;;
74401;SDS011;62837;51.082;13.744;2023-04-25T14:40:56;8.80;;;2.10;;
74401;SDS011;62837;51.082;13.744;2023-04-25T14:43:26;7.40;;;1.90;;
74401;SDS011;62837;51.082;13.744;2023-04-25T14:45:57;5.90;;;1.80;;
74401;SDS011;62837;51.082;13.744;2023-04-25T14:48:29;7.00;;;1.50;;
74401;SDS011;62837;51.082;13.744;2023-04-25T14:51:00;4.60;;;1.00;;
74401;SDS011;62837;51.082;13.744;2023-04-25T14:53:31;7.40;;;1.30;;
74401;SDS011;62837;51.082;13.744;2023-04-25T14:56:02;7.20;;;1.80;;
74401;SDS011;62837;51.082;13.744;2023-04-25T15:01:04;9.10;;;1.90;;
74401;SDS011;62837;51.082;13.744;2023-04-25T15:03:35;4.60;;;1.50;;
74401;SDS011;62837;51.082;13.744;2023-04-25T15:06:07;6.80;;;1.40;;
74401;SDS011;62837;51.082;13.744;2023-04-25T15:08:37;5.20;;;1.20;;
74401;SDS011;62837;51.082;13.744;2023-04-25T15:11:08;4.00;;;1.30;;
74401;SDS011;62837;51.082;13.744;2023-04-25T15:13:40;4.40;;;1.00;;
74401;SDS011;62837;51.082;13.744;2023-04-25T15:16:11;6.50;;;1.20;;
74401;SDS011;62837;51.082;13.744;2023-04-25T15:18:42;5.00;;;1.00;;
74401;SDS011;62837;51.082;13.744;2023-04-25T15:21:12;5.80;;;1.20;;
74401;SDS011;62837;51.082;13.744;2023-04-25T15:23:44;4.40;;;0.90;;
74401;SDS011;62837;51.082;13.744;2023-04-25T15:26:14;6.20;;;1.50;;
74401;SDS011;62837;51.082;13.744;2023-04-25T15:28:45;5.20;;;1.20;;
74401;SDS011;62837;51.082;13.744;2023-04-25T15:31:16;3.70;;;1.00;;